Time;durP1;ratioP1;P1;durP2;ratioP2;P2;SDS_P1;SDS_P2;PMS_P1;PMS_P2;Temp;Humidity;BMP_temperature;BMP_pressure;BME280_temperature;BME280_humidity;BME280_pressure;Samples;Min_cycle;Max_cycle;Signal;HPM_P1;HPM_P2
2022/06/16 00:00:47;;;;;;;1.48;1.48;;;19.50;57.00;;;;;;5022651;28;20053;-58
2022/06/16 00:03:13;;;;;;;1.58;1.50;;;19.50;57.10;;;;;;5033236;28;20104;-59
2022/06/16 00:05:42;;;;;;;1.85;1.70;;;19.40;57.00;;;;;;5034696;28;20022;-58
2022/06/16 00:08:11;;;;;;;1.90;1.80;;;19.40;57.00;;;;;;5026417;28;20470;-58
2022/06/16 00:10:37;;;;;;;1.50;1.40;;;19.40;57.00;;;;;;5028748;28;20036;-58
2022/06/16 00:13:04;;;;;;;1.50;1.40;;;19.30;56.80;;;;;;5023113;28;20489;-58
2022/06/16 00:15:30;;;;;;;2.00;1.80;;;19.30;56.80;;;;;;5032645;28;20025;-58
2022/06/16 00:17:58;;;;;;;1.67;1.58;;;19.30;56.80;;;;;;5033714;28;20034;-59
2022/06/16 00:20:24;;;;;;;2.30;1.98;;;19.30;56.80;;;;;;5025159;28;20105;-58
2022/06/16 00:22:50;;;;;;;1.85;1.75;;;19.30;56.80;;;;;;5024958;28;20022;-58
2022/06/16 00:25:16;;;;;;;1.65;1.55;;;19.20;56.50;;;;;;5022675;28;20029;-58
2022/06/16 00:27:42;;;;;;;2.05;1.88;;;19.20;56.60;;;;;;5027936;28;20038;-58
2022/06/16 00:30:09;;;;;;;2.00;1.90;;;19.20;56.50;;;;;;5023694;28;20022;-58
2022/06/16 00:32:37;;;;;;;1.90;1.80;;;19.20;56.50;;;;;;5016898;28;20038;-58
2022/06/16 00:35:03;;;;;;;1.65;1.55;;;19.10;56.50;;;;;;5032964;28;20029;-58
2022/06/16 00:37:28;;;;;;;2.25;1.60;;;19.10;56.70;;;;;;5033167;28;20382;-58
2022/06/16 00:39:54;;;;;;;1.80;1.70;;;19.10;56.70;;;;;;5034015;28;20021;-58
2022/06/16 00:42:23;;;;;;;1.83;1.70;;;19.00;56.80;;;;;;5033562;28;20558;-58
2022/06/16 00:44:51;;;;;;;1.80;1.70;;;19.00;56.70;;;;;;5016886;28;20037;-59
2022/06/16 00:47:22;;;;;;;1.77;1.67;;;19.00;56.80;;;;;;5017785;28;20048;-58
2022/06/16 00:49:50;;;;;;;1.80;1.65;;;18.90;56.90;;;;;;5025180;28;20101;-58
2022/06/16 00:52:23;;;;;;;2.15;1.90;;;18.90;57.00;;;;;;5031772;28;20033;-58
2022/06/16 00:55:03;;;;;;;1.60;1.50;;;18.90;57.60;;;;;;5023965;28;20026;-58
2022/06/16 00:57:37;;;;;;;2.10;1.90;;;18.90;57.10;;;;;;5030454;28;20025;-58
2022/06/16 01:00:18;;;;;;;2.13;1.85;;;18.90;57.20;;;;;;5025567;28;20030;-58
2022/06/16 01:02:44;;;;;;;1.70;1.60;;;18.90;57.30;;;;;;5029368;28;20038;-59
2022/06/16 01:05:10;;;;;;;2.58;1.80;;;18.80;57.40;;;;;;5029028;28;20052;-58
2022/06/16 01:07:40;;;;;;;2.70;1.95;;;18.90;57.50;;;;;;5025464;28;20478;-58
2022/06/16 01:10:07;;;;;;;2.10;1.90;;;18.80;57.70;;;;;;5032067;28;20089;-58
2022/06/16 01:15:52;;;;;;;2.17;1.90;;;18.90;58.00;;;;;;5032638;28;20077;-58
2022/06/16 01:18:41;;;;;;;2.33;2.05;;;18.90;57.90;;;;;;5030148;28;20025;-58
2022/06/16 01:21:41;;;;;;;2.20;2.00;;;18.90;58.50;;;;;;5031719;28;20021;-58
2022/06/16 01:24:34;;;;;;;2.03;1.90;;;18.90;58.00;;;;;;5019511;28;20484;-58
2022/06/16 01:27:18;;;;;;;2.28;2.08;;;18.80;58.10;;;;;;5030499;28;20029;-58
2022/06/16 01:30:02;;;;;;;1.58;1.52;;;18.80;58.20;;;;;;5025620;28;20025;-58
2022/06/16 01:32:30;;;;;;;2.63;1.88;;;18.80;58.20;;;;;;5031955;28;20109;-59
2022/06/16 01:35:16;;;;;;;1.92;1.73;;;18.70;58.30;;;;;;5024349;28;20079;-58
2022/06/16 01:37:59;;;;;;;3.33;1.90;;;18.70;58.60;;;;;;5015331;28;20022;-58
2022/06/16 01:40:49;;;;;;;2.00;1.90;;;18.60;58.80;;;;;;5026550;28;20455;-58
2022/06/16 01:43:27;;;;;;;1.88;1.77;;;18.60;58.90;;;;;;5032427;28;20026;-58
2022/06/16 01:46:01;;;;;;;1.75;1.65;;;18.60;59.10;;;;;;5014212;28;20381;-58
2022/06/16 01:48:28;;;;;;;2.38;1.90;;;18.60;59.10;;;;;;5027197;28;20085;-58
2022/06/16 01:51:04;;;;;;;1.98;1.67;;;18.60;59.20;;;;;;5030361;28;20052;-58
2022/06/16 01:53:38;;;;;;;2.05;1.90;;;18.60;59.20;;;;;;5029824;28;20454;-58
2022/06/16 01:56:21;;;;;;;2.20;1.95;;;18.50;59.30;;;;;;5037143;28;20029;-58
2022/06/16 01:58:52;;;;;;;2.42;1.77;;;18.50;59.60;;;;;;5017785;28;20080;-58
2022/06/16 02:01:21;;;;;;;1.75;1.50;;;18.50;59.60;;;;;;5034526;28;20049;-58
2022/06/16 02:03:54;;;;;;;1.92;1.83;;;18.50;59.70;;;;;;5032430;28;20080;-58
2022/06/16 02:06:25;;;;;;;2.25;2.03;;;18.50;59.90;;;;;;5029452;28;20026;-58
2022/06/16 02:08:56;;;;;;;2.25;2.05;;;18.60;59.90;;;;;;5021267;28;20040;-58
2022/06/16 02:11:31;;;;;;;2.63;1.92;;;18.60;59.90;;;;;;5017696;28;20046;-58
2022/06/16 02:14:06;;;;;;;2.30;2.10;;;18.60;59.90;;;;;;5024503;28;20041;-59
2022/06/16 02:16:34;;;;;;;2.55;2.35;;;18.60;59.80;;;;;;5032978;28;20053;-58
2022/06/16 02:19:03;;;;;;;2.50;2.08;;;18.70;59.90;;;;;;5031184;28;20505;-58
2022/06/16 02:21:38;;;;;;;2.50;2.30;;;18.70;60.00;;;;;;5034546;28;20581;-58
2022/06/16 02:24:05;;;;;;;2.63;2.30;;;18.70;60.00;;;;;;5025829;28;20026;-58
2022/06/16 02:26:32;;;;;;;2.40;2.20;;;18.70;59.90;;;;;;5027914;28;20025;-58
2022/06/16 02:29:01;;;;;;;2.33;2.13;;;18.80;59.70;;;;;;5026454;28;20118;-57
2022/06/16 02:31:51;;;;;;;2.65;2.17;;;18.80;59.60;;;;;;5031477;28;20477;-58
2022/06/16 02:34:42;;;;;;;3.25;2.60;;;18.90;59.70;;;;;;5023086;28;20021;-58
2022/06/16 02:37:11;;;;;;;2.08;1.98;;;18.90;59.50;;;;;;5029414;28;20118;-58
2022/06/16 02:39:55;;;;;;;2.10;1.90;;;18.90;59.50;;;;;;5033285;28;20575;-58
2022/06/16 02:42:32;;;;;;;2.45;2.25;;;18.90;59.50;;;;;;5032276;28;20026;-58
2022/06/16 02:45:18;;;;;;;2.35;2.03;;;19.00;59.80;;;;;;5023214;28;20486;-58
2022/06/16 02:47:57;;;;;;;2.15;1.95;;;18.90;59.80;;;;;;5024910;28;20046;-58
2022/06/16 02:50:30;;;;;;;2.63;2.30;;;19.00;59.90;;;;;;5040726;28;20013;-57
2022/06/16 02:53:26;;;;;;;2.13;1.98;;;19.00;60.00;;;;;;5024146;28;20018;-58
2022/06/16 02:55:58;;;;;;;2.63;2.20;;;19.00;60.10;;;;;;5031461;28;20111;-58
2022/06/16 02:58:25;;;;;;;2.08;1.98;;;19.10;60.00;;;;;;5017772;28;20633;-58
2022/06/16 03:00:54;;;;;;;2.08;1.92;;;19.10;59.70;;;;;;5020239;28;20021;-59
2022/06/16 03:03:24;;;;;;;2.50;2.30;;;19.20;59.50;;;;;;5035276;28;20039;-59
2022/06/16 03:05:54;;;;;;;2.20;2.03;;;19.30;59.30;;;;;;5033541;28;20105;-59
2022/06/16 03:08:22;;;;;;;2.63;2.42;;;19.40;59.30;;;;;;5034927;28;20109;-58
2022/06/16 03:10:51;;;;;;;2.60;2.22;;;19.40;59.30;;;;;;5034737;28;20193;-59
2022/06/16 03:13:18;;;;;;;3.05;2.30;;;19.50;59.30;;;;;;5021227;28;20045;-59
2022/06/16 03:15:43;;;;;;;3.20;2.35;;;19.60;59.30;;;;;;5025502;28;20085;-59
2022/06/16 03:18:09;;;;;;;2.50;2.30;;;19.60;59.10;;;;;;5027137;28;20108;-59
2022/06/16 03:20:36;;;;;;;2.55;2.22;;;19.70;59.00;;;;;;5033546;28;20098;-59
2022/06/16 03:23:01;;;;;;;2.08;1.80;;;19.80;58.90;;;;;;5025615;28;20374;-59
2022/06/16 03:25:27;;;;;;;2.55;2.20;;;19.90;58.80;;;;;;5030471;28;20033;-59
2022/06/16 03:27:53;;;;;;;2.50;2.30;;;19.90;58.50;;;;;;5029071;28;20033;-59
2022/06/16 03:30:18;;;;;;;3.08;2.38;;;19.90;58.50;;;;;;5027966;28;20053;-59
2022/06/16 03:32:44;;;;;;;3.00;2.50;;;20.10;58.60;;;;;;5034005;28;20041;-59
2022/06/16 03:35:10;;;;;;;2.50;2.20;;;20.20;58.60;;;;;;5023990;28;20033;-59
2022/06/16 03:37:36;;;;;;;2.90;2.30;;;20.30;58.40;;;;;;5034572;28;20052;-59
2022/06/16 03:40:01;;;;;;;2.30;2.10;;;20.40;58.30;;;;;;5035923;28;20108;-59
2022/06/16 03:42:27;;;;;;;3.30;2.60;;;20.60;58.30;;;;;;5033663;28;20033;-59
2022/06/16 03:44:53;;;;;;;3.30;2.25;;;21.00;58.30;;;;;;5021773;28;20025;-59
2022/06/16 03:47:19;;;;;;;2.33;2.13;;;21.60;58.00;;;;;;5031757;28;20030;-59
2022/06/16 03:49:44;;;;;;;2.08;1.90;;;22.40;57.50;;;;;;5033885;28;20465;-59
2022/06/16 03:52:10;;;;;;;2.30;2.03;;;23.50;56.50;;;;;;5026827;28;20421;-59
2022/06/16 03:54:36;;;;;;;1.85;1.75;;;24.60;55.00;;;;;;5032658;28;20025;-59
2022/06/16 03:57:01;;;;;;;1.88;1.73;;;25.80;53.90;;;;;;5028018;28;20034;-59
2022/06/16 03:59:27;;;;;;;2.67;1.60;;;26.80;52.50;;;;;;5015275;28;20026;-59
2022/06/16 04:01:53;;;;;;;1.90;1.55;;;27.70;51.50;;;;;;5034203;28;20112;-59
2022/06/16 04:04:18;;;;;;;1.50;1.40;;;28.70;50.40;;;;;;5033951;28;20394;-59
2022/06/16 04:06:44;;;;;;;1.52;1.40;;;29.50;49.50;;;;;;5026462;28;20084;-59
2022/06/16 04:09:10;;;;;;;2.15;1.50;;;30.10;48.50;;;;;;5033942;28;20096;-59
2022/06/16 04:11:35;;;;;;;1.35;1.23;;;30.50;47.50;;;;;;5027442;28;20118;-60
2022/06/16 04:14:07;;;;;;;1.80;1.70;;;31.00;47.10;;;;;;5032593;28;20029;-57
2022/06/16 04:16:36;;;;;;;1.65;1.55;;;31.60;46.50;;;;;;5033551;28;20114;-59
2022/06/16 04:19:02;;;;;;;1.60;1.50;;;32.30;45.80;;;;;;5028703;28;20098;-59
2022/06/16 04:21:28;;;;;;;1.60;1.50;;;32.80;45.10;;;;;;5029193;28;20745;-59
2022/06/16 04:23:54;;;;;;;1.60;1.50;;;33.30;44.30;;;;;;5032771;28;20499;-59
2022/06/16 04:26:21;;;;;;;1.65;1.50;;;33.60;43.90;;;;;;5029302;28;20030;-57
2022/06/16 04:28:47;;;;;;;1.77;1.45;;;34.00;43.60;;;;;;5019962;28;20084;-57
2022/06/16 04:31:13;;;;;;;1.25;1.20;;;34.40;43.10;;;;;;5028045;28;20029;-58
2022/06/16 04:33:39;;;;;;;1.67;1.55;;;34.70;42.60;;;;;;5027801;28;20107;-58
2022/06/16 04:36:05;;;;;;;1.67;1.40;;;34.80;42.20;;;;;;5032135;28;20108;-58
2022/06/16 04:38:31;;;;;;;2.17;1.90;;;34.80;41.80;;;;;;5024332;28;20057;-58
2022/06/16 04:41:00;;;;;;;2.28;1.60;;;34.70;41.40;;;;;;5017611;28;20036;-58
2022/06/16 04:43:26;;;;;;;1.30;1.30;;;34.20;41.30;;;;;;5017214;28;20030;-58
2022/06/16 04:45:52;;;;;;;2.28;1.13;;;33.50;41.30;;;;;;5032914;28;20498;-58
2022/06/16 04:48:18;;;;;;;1.50;1.40;;;32.60;41.70;;;;;;5027400;28;20053;-58
2022/06/16 04:50:44;;;;;;;1.33;1.23;;;31.70;42.30;;;;;;5023495;28;20033;-58
2022/06/16 04:53:10;;;;;;;1.13;1.10;;;31.10;43.00;;;;;;5023880;28;20060;-58
2022/06/16 04:55:36;;;;;;;1.17;1.17;;;30.70;43.40;;;;;;5025399;28;20397;-58
2022/06/16 04:58:03;;;;;;;1.20;1.20;;;30.40;43.50;;;;;;5024463;28;20029;-58
2022/06/16 05:00:28;;;;;;;1.15;1.10;;;30.20;43.80;;;;;;5028873;28;20031;-58
2022/06/16 05:02:54;;;;;;;1.25;1.15;;;30.20;44.30;;;;;;5029764;28;20022;-58
2022/06/16 05:05:20;;;;;;;1.30;1.20;;;30.40;44.30;;;;;;5021576;28;20033;-58
2022/06/16 05:07:46;;;;;;;0.88;0.88;;;30.90;44.40;;;;;;5025568;28;20565;-58
2022/06/16 05:10:12;;;;;;;0.90;0.90;;;31.60;44.10;;;;;;5029203;28;20096;-58
2022/06/16 05:12:39;;;;;;;1.30;1.20;;;32.20;43.70;;;;;;5025742;28;20030;-58
2022/06/16 05:15:05;;;;;;;1.58;1.25;;;32.60;43.10;;;;;;5023149;28;20026;-58
2022/06/16 05:17:31;;;;;;;1.20;1.10;;;32.90;42.40;;;;;;5024199;28;20544;-58
2022/06/16 05:19:57;;;;;;;1.30;1.20;;;32.80;41.90;;;;;;5027100;28;20025;-58
2022/06/16 05:22:23;;;;;;;1.00;1.00;;;32.80;41.40;;;;;;5028930;28;20017;-58
2022/06/16 05:24:49;;;;;;;0.75;0.75;;;32.60;41.30;;;;;;5025659;28;20439;-59
2022/06/16 05:27:15;;;;;;;1.30;1.20;;;32.30;41.10;;;;;;5027859;28;20127;-58
2022/06/16 05:29:42;;;;;;;2.42;1.48;;;31.80;41.30;;;;;;5023899;28;20025;-59
2022/06/16 05:32:09;;;;;;;1.13;1.00;;;31.10;41.60;;;;;;5028680;28;20514;-59
2022/06/16 05:34:36;;;;;;;1.30;1.30;;;30.50;42.20;;;;;;5030529;28;20033;-58
2022/06/16 05:37:03;;;;;;;1.40;1.30;;;29.80;42.80;;;;;;5025655;28;20032;-59
2022/06/16 05:39:29;;;;;;;2.17;1.80;;;29.30;43.50;;;;;;5014888;28;20034;-59
2022/06/16 05:41:54;;;;;;;1.48;1.40;;;28.80;44.00;;;;;;5023586;28;20491;-59
2022/06/16 05:44:21;;;;;;;1.10;1.08;;;28.40;44.30;;;;;;5026314;28;20026;-59
2022/06/16 05:46:46;;;;;;;1.50;1.40;;;28.00;44.70;;;;;;5016253;28;20048;-59
2022/06/16 05:49:13;;;;;;;1.20;1.10;;;27.70;44.70;;;;;;5020294;28;20020;-59
2022/06/16 05:51:39;;;;;;;1.77;1.67;;;27.40;44.90;;;;;;5017232;28;20036;-58
2022/06/16 05:54:06;;;;;;;1.20;1.08;;;27.20;45.00;;;;;;5013915;28;20095;-59
2022/06/16 05:56:32;;;;;;;1.52;1.30;;;26.90;45.10;;;;;;5015434;28;20116;-59
2022/06/16 05:58:57;;;;;;;1.02;1.02;;;26.80;46.20;;;;;;5015749;28;20055;-59
2022/06/16 06:01:23;;;;;;;1.58;1.42;;;26.70;45.70;;;;;;5012111;28;20032;-59
2022/06/16 06:03:49;;;;;;;1.35;1.25;;;26.50;45.90;;;;;;5008486;28;20092;-58
2022/06/16 06:06:15;;;;;;;2.17;1.50;;;26.40;46.20;;;;;;5011760;28;20022;-58
2022/06/16 06:17:06;;;;;;;1.38;1.27;;;26.00;47.20;;;;;;5007695;28;19952;-58
2022/06/16 06:19:32;;;;;;;1.25;1.15;;;25.90;47.10;;;;;;5019104;28;20045;-58
2022/06/16 06:22:07;;;;;;;1.83;1.73;;;25.80;47.20;;;;;;5009449;28;20033;-58
2022/06/16 06:24:37;;;;;;;2.38;1.40;;;25.80;47.30;;;;;;5007337;28;20035;-58
2022/06/16 06:27:13;;;;;;;1.27;1.17;;;25.70;47.40;;;;;;5011223;28;20120;-57
2022/06/16 06:29:39;;;;;;;1.42;1.33;;;25.60;47.60;;;;;;5009386;28;20436;-58
2022/06/16 06:32:05;;;;;;;1.98;1.60;;;25.60;47.80;;;;;;5010832;28;20038;-58
2022/06/16 06:34:31;;;;;;;1.58;1.50;;;25.60;47.80;;;;;;5004940;28;20034;-58
2022/06/16 06:36:56;;;;;;;2.22;2.03;;;25.50;47.80;;;;;;5010007;28;20041;-58
2022/06/16 06:39:22;;;;;;;1.65;1.50;;;25.50;48.00;;;;;;5004930;28;20037;-58
2022/06/16 06:41:48;;;;;;;3.05;1.73;;;25.40;48.20;;;;;;5009281;28;20465;-57
2022/06/16 06:44:14;;;;;;;1.88;1.45;;;25.40;48.20;;;;;;5012276;28;20037;-57
2022/06/16 06:46:40;;;;;;;1.30;1.20;;;25.40;48.30;;;;;;5005890;28;20616;-58
2022/06/16 06:49:06;;;;;;;2.13;1.48;;;25.40;48.40;;;;;;5012456;28;20390;-58
2022/06/16 06:51:32;;;;;;;2.28;1.00;;;25.40;48.40;;;;;;5016289;28;20025;-56
2022/06/16 06:53:59;;;;;;;1.63;1.52;;;25.40;48.40;;;;;;5006030;28;20041;-58
2022/06/16 06:56:27;;;;;;;2.45;2.25;;;25.30;48.40;;;;;;5008701;28;20029;-58
2022/06/16 06:58:55;;;;;;;1.50;1.40;;;25.30;48.30;;;;;;5011094;28;20033;-58
2022/06/16 07:01:21;;;;;;;2.05;1.50;;;25.30;48.40;;;;;;5005209;28;20046;-58
2022/06/16 07:03:47;;;;;;;1.60;1.35;;;25.30;48.90;;;;;;5006057;28;20072;-59
2022/06/16 07:06:13;;;;;;;1.77;1.65;;;25.30;48.50;;;;;;5005902;28;23094;-59
2022/06/16 07:08:38;;;;;;;1.27;1.17;;;25.20;48.60;;;;;;5003516;28;20160;-58
2022/06/16 07:11:04;;;;;;;1.58;1.48;;;25.20;48.70;;;;;;5004351;28;20606;-58
2022/06/16 07:13:29;;;;;;;1.58;1.30;;;25.20;48.70;;;;;;5000664;28;20041;-57
2022/06/16 07:15:55;;;;;;;1.60;1.50;;;25.20;48.80;;;;;;5006302;28;20025;-58
2022/06/16 07:18:21;;;;;;;1.80;1.42;;;25.20;49.10;;;;;;5000839;28;20033;-57
2022/06/16 07:20:50;;;;;;;1.70;1.60;;;25.20;49.20;;;;;;5011786;28;20033;-57
2022/06/16 07:23:18;;;;;;;3.22;1.83;;;25.20;49.30;;;;;;5009422;28;22385;-57
2022/06/16 07:25:48;;;;;;;1.60;1.50;;;25.20;49.30;;;;;;5008481;28;20490;-58
2022/06/16 07:28:13;;;;;;;1.63;1.52;;;25.10;49.30;;;;;;5003548;28;20095;-57
2022/06/16 07:30:40;;;;;;;1.40;1.30;;;25.10;49.50;;;;;;5003891;28;20481;-57
2022/06/16 07:33:07;;;;;;;1.13;1.00;;;25.10;49.10;;;;;;4999694;28;20038;-57
2022/06/16 07:35:33;;;;;;;1.15;1.15;;;25.10;49.20;;;;;;5007969;28;20025;-57
2022/06/16 07:37:58;;;;;;;1.05;1.05;;;25.10;49.00;;;;;;4998644;28;20041;-57
2022/06/16 07:40:24;;;;;;;1.58;1.48;;;25.10;49.00;;;;;;4989548;28;20964;-57
2022/06/16 07:42:56;;;;;;;1.35;1.27;;;25.10;49.00;;;;;;4999915;28;20026;-55
2022/06/16 07:45:23;;;;;;;1.35;1.25;;;25.20;48.70;;;;;;5004769;28;20030;-56
2022/06/16 07:47:50;;;;;;;1.27;1.27;;;25.10;49.00;;;;;;4997739;28;20053;-57
2022/06/16 07:50:16;;;;;;;1.40;1.30;;;25.20;48.90;;;;;;4999590;28;20057;-57
2022/06/16 07:52:42;;;;;;;1.58;1.48;;;25.10;48.90;;;;;;4998384;28;20034;-54
2022/06/16 07:55:09;;;;;;;1.33;1.20;;;25.20;49.10;;;;;;4998727;28;20482;-57
2022/06/16 07:57:43;;;;;;;1.17;1.17;;;25.10;49.20;;;;;;5000853;28;20113;-55
2022/06/16 08:00:11;;;;;;;1.70;1.50;;;25.20;49.30;;;;;;5003727;28;20029;-57
2022/06/16 08:02:37;;;;;;;1.58;1.45;;;25.20;49.30;;;;;;4999355;28;24387;-57
2022/06/16 08:05:04;;;;;;;2.33;1.52;;;25.10;49.20;;;;;;5012322;28;20026;-56
2022/06/16 08:07:30;;;;;;;1.42;1.35;;;25.10;49.40;;;;;;4999715;28;20030;-57
2022/06/16 08:09:56;;;;;;;1.52;1.42;;;25.10;49.60;;;;;;5008324;28;20037;-58
2022/06/16 08:12:21;;;;;;;1.50;1.40;;;25.10;49.50;;;;;;5005606;28;20474;-57
2022/06/16 08:14:48;;;;;;;1.58;1.15;;;25.10;49.50;;;;;;5017465;28;20025;-57
2022/06/16 08:17:24;;;;;;;1.60;1.50;;;25.00;49.30;;;;;;5006462;28;20779;-58
2022/06/16 08:19:51;;;;;;;1.48;1.20;;;25.10;49.60;;;;;;5002804;28;20596;-57
2022/06/16 08:22:17;;;;;;;2.35;1.70;;;25.10;49.30;;;;;;5004665;28;20861;-58
2022/06/16 08:24:43;;;;;;;1.35;1.25;;;25.10;49.20;;;;;;5004218;28;20029;-58
2022/06/16 08:27:10;;;;;;;1.40;1.30;;;25.10;49.20;;;;;;4995229;28;20060;-57
2022/06/16 08:29:37;;;;;;;1.85;1.50;;;25.10;49.20;;;;;;4990143;28;20021;-58
2022/06/16 08:32:03;;;;;;;1.20;1.17;;;25.10;49.30;;;;;;4993884;28;20021;-57
2022/06/16 08:34:29;;;;;;;1.30;1.30;;;25.10;49.50;;;;;;5004037;28;20064;-59
2022/06/16 08:36:54;;;;;;;1.75;1.65;;;25.10;49.60;;;;;;5008942;28;20144;-57
2022/06/16 08:39:20;;;;;;;1.60;1.50;;;25.10;49.60;;;;;;4996059;28;20034;-56
2022/06/16 08:42:15;;;;;;;1.35;1.25;;;25.00;49.50;;;;;;5003119;28;20692;-59
2022/06/16 08:44:50;;;;;;;1.25;1.25;;;25.00;49.40;;;;;;5005454;28;20042;-58
2022/06/16 08:47:20;;;;;;;1.40;1.30;;;25.00;49.50;;;;;;5000267;28;20474;-58
2022/06/16 08:49:55;;;;;;;3.63;1.60;;;24.90;49.50;;;;;;4999855;28;20029;-57
2022/06/16 08:52:31;;;;;;;1.48;1.38;;;24.90;49.60;;;;;;4998173;28;20033;-56
2022/06/16 08:55:20;;;;;;;1.50;1.40;;;24.80;49.60;;;;;;5002789;28;20030;-58
2022/06/16 08:58:19;;;;;;;1.30;1.30;;;24.80;49.70;;;;;;4989048;28;20036;-58
2022/06/16 09:00:49;;;;;;;1.88;1.40;;;24.70;49.70;;;;;;5003756;28;20493;-58
2022/06/16 09:03:41;;;;;;;1.30;1.20;;;24.70;49.50;;;;;;4998309;28;20037;-55
2022/06/16 09:06:24;;;;;;;1.15;1.15;;;24.60;49.70;;;;;;5003897;28;20421;-58
2022/06/16 09:08:59;;;;;;;1.40;1.30;;;24.60;49.60;;;;;;4996584;28;20057;-56
2022/06/16 09:11:58;;;;;;;2.97;1.98;;;24.50;49.30;;;;;;5004018;28;20017;-56
2022/06/16 09:17:37;;;;;;;1.48;1.30;;;24.40;49.60;;;;;;5001756;28;20036;-58
2022/06/16 09:20:23;;;;;;;1.20;1.10;;;24.40;48.90;;;;;;5001124;28;20090;-57
2022/06/16 09:23:03;;;;;;;0.98;0.98;;;24.30;49.00;;;;;;4995154;28;20037;-55
2022/06/16 09:25:38;;;;;;;;;;;24.30;48.90;;;;;;4996018;28;20605;-55
2022/06/16 09:28:55;;;;;;;1.10;1.10;;;24.20;48.80;;;;;;4991401;28;19932;-58
2022/06/16 09:31:35;;;;;;;1.02;1.00;;;24.20;48.90;;;;;;5003009;28;20055;-58
2022/06/16 09:34:11;;;;;;;1.35;1.30;;;24.10;49.00;;;;;;5015779;28;20044;-58
2022/06/16 09:36:45;;;;;;;1.30;1.20;;;24.10;49.10;;;;;;4997874;28;22152;-58
2022/06/16 09:39:26;;;;;;;1.65;1.30;;;24.00;49.10;;;;;;4992217;28;20029;-57
2022/06/16 09:42:32;;;;;;;1.20;1.10;;;24.10;49.90;;;;;;4999125;28;20111;-57
2022/06/16 09:45:01;;;;;;;1.27;1.17;;;24.00;49.10;;;;;;5004879;28;20846;-59
2022/06/16 09:47:34;;;;;;;1.20;1.20;;;24.00;49.20;;;;;;5002415;28;20045;-57
2022/06/16 09:50:14;;;;;;;1.30;1.20;;;24.00;49.30;;;;;;4996243;28;20038;-57
2022/06/16 09:52:59;;;;;;;;;;;24.00;49.20;;;;;;4997810;28;20037;-57
2022/06/16 09:56:26;;;;;;;0.98;0.98;;;24.00;49.80;;;;;;4997819;28;20495;-57
2022/06/16 09:58:56;;;;;;;2.88;1.40;;;24.00;49.50;;;;;;4954385;28;20046;-57
2022/06/16 10:01:26;;;;;;;1.30;1.20;;;24.00;49.50;;;;;;4995191;28;20025;-58
2022/06/16 10:04:03;;;;;;;0.93;0.93;;;23.90;49.60;;;;;;4998931;28;20053;-57
2022/06/16 10:06:32;;;;;;;1.27;1.23;;;23.90;49.40;;;;;;4997701;28;20039;-56
2022/06/16 10:09:23;;;;;;;1.63;1.20;;;23.90;49.60;;;;;;4988019;28;20034;-58
2022/06/16 10:12:18;;;;;;;1.45;1.20;;;23.90;49.80;;;;;;4992363;28;20087;-58
2022/06/16 10:14:49;;;;;;;1.27;1.17;;;23.90;49.90;;;;;;4998123;28;20022;-58
2022/06/16 10:17:20;;;;;;;1.65;1.55;;;23.90;49.70;;;;;;4991931;28;20056;-57
2022/06/16 10:19:46;;;;;;;1.33;1.27;;;23.90;49.80;;;;;;4987973;28;20033;-58
2022/06/16 10:22:14;;;;;;;1.13;1.13;;;23.90;49.70;;;;;;4994489;28;20033;-58
2022/06/16 10:24:58;;;;;;;1.90;1.38;;;23.90;49.60;;;;;;4997536;28;20045;-57
2022/06/16 10:27:32;;;;;;;1.38;1.27;;;23.90;49.30;;;;;;4994851;28;20509;-58
2022/06/16 10:30:00;;;;;;;1.33;1.23;;;23.90;49.00;;;;;;4998940;28;20091;-58
2022/06/16 10:32:41;;;;;;;1.55;1.15;;;23.90;48.70;;;;;;4997372;28;20079;-58
2022/06/16 10:35:13;;;;;;;1.50;1.40;;;23.90;48.40;;;;;;5001704;28;20029;-58
2022/06/16 10:37:41;;;;;;;1.60;1.40;;;23.90;48.40;;;;;;5000566;28;20037;-57
2022/06/16 10:40:13;;;;;;;1.35;1.25;;;23.90;48.40;;;;;;5001940;28;20026;-58
2022/06/16 10:42:50;;;;;;;1.42;1.33;;;23.90;48.50;;;;;;5004542;28;20080;-58
2022/06/16 10:45:21;;;;;;;6.78;3.85;;;23.90;48.50;;;;;;5001035;28;20034;-58
2022/06/16 10:47:50;;;;;;;2.22;2.00;;;23.90;48.60;;;;;;5004487;28;20760;-58
2022/06/16 10:50:40;;;;;;;1.67;1.58;;;23.90;48.60;;;;;;4997868;28;20409;-58
2022/06/16 10:53:22;;;;;;;1.37;1.27;;;24.00;48.70;;;;;;5002508;28;20038;-58
2022/06/16 10:55:49;;;;;;;1.27;1.17;;;23.90;48.80;;;;;;5007007;28;20410;-56
2022/06/16 10:58:27;;;;;;;2.00;1.00;;;24.00;48.70;;;;;;5004540;28;20116;-58
2022/06/16 11:01:16;;;;;;;1.80;1.70;;;24.00;48.90;;;;;;5006032;28;20049;-58
2022/06/16 11:03:48;;;;;;;1.35;1.25;;;24.00;48.60;;;;;;5005868;28;22125;-58
2022/06/16 11:06:18;;;;;;;1.50;1.40;;;24.00;48.40;;;;;;4998301;28;20048;-58
2022/06/16 11:08:58;;;;;;;0.93;0.93;;;24.00;48.10;;;;;;4995863;28;20034;-58
2022/06/16 11:11:42;;;;;;;1.38;1.27;;;24.00;47.90;;;;;;4983479;28;20041;-56
2022/06/16 11:14:22;;;;;;;1.02;1.02;;;23.90;47.90;;;;;;4997715;28;20044;-58
2022/06/16 11:16:50;;;;;;;;;;;23.90;47.90;;;;;;4984029;28;20080;-57
2022/06/16 11:19:28;;;;;;;0.85;0.85;;;23.90;48.40;;;;;;4999532;28;20377;-58
2022/06/16 11:21:53;;;;;;;1.23;1.13;;;23.90;48.30;;;;;;5004635;28;20025;-58
2022/06/16 11:24:29;;;;;;;1.70;1.30;;;23.90;48.10;;;;;;4994801;28;21648;-58
2022/06/16 11:27:14;;;;;;;1.42;1.13;;;23.90;47.80;;;;;;4995668;28;20061;-58
2022/06/16 11:29:40;;;;;;;1.17;1.10;;;23.90;47.70;;;;;;4994554;28;20033;-57
2022/06/16 11:32:17;;;;;;;1.20;1.10;;;23.90;47.80;;;;;;4992991;28;20030;-58
2022/06/16 11:34:44;;;;;;;1.17;1.13;;;23.90;47.80;;;;;;4997576;28;20108;-58
2022/06/16 11:37:10;;;;;;;1.60;1.50;;;23.90;47.80;;;;;;4992203;28;20758;-58
2022/06/16 11:40:00;;;;;;;1.38;1.25;;;24.00;47.70;;;;;;4987832;28;20558;-59
2022/06/16 11:42:25;;;;;;;1.00;1.00;;;24.00;47.90;;;;;;4985824;28;20501;-58
2022/06/16 11:45:07;;;;;;;1.10;1.10;;;24.00;48.20;;;;;;4978015;28;20032;-57
2022/06/16 11:47:52;;;;;;;1.08;1.00;;;24.00;48.10;;;;;;4983862;28;20148;-58
2022/06/16 11:50:30;;;;;;;2.20;1.33;;;24.10;47.50;;;;;;4992004;28;20033;-57
2022/06/16 11:53:21;;;;;;;1.15;1.10;;;24.10;47.50;;;;;;4998367;28;22190;-58
2022/06/16 11:55:58;;;;;;;1.23;1.23;;;24.00;47.20;;;;;;5001322;28;20033;-58
2022/06/16 11:58:42;;;;;;;1.27;1.17;;;24.00;47.30;;;;;;4997479;28;20022;-58
2022/06/16 12:01:14;;;;;;;1.00;1.00;;;24.00;46.90;;;;;;4991052;28;20053;-58
2022/06/16 12:03:49;;;;;;;1.10;1.10;;;24.00;47.20;;;;;;4999805;28;23008;-56
2022/06/16 12:06:45;;;;;;;1.55;0.93;;;24.00;47.10;;;;;;4999447;28;20034;-57
2022/06/16 12:09:33;;;;;;;1.58;1.10;;;24.10;47.30;;;;;;4999144;28;20123;-58
2022/06/16 12:12:19;;;;;;;1.17;1.10;;;24.10;47.40;;;;;;5003078;28;20041;-58
2022/06/16 12:14:53;;;;;;;1.23;1.13;;;24.00;47.60;;;;;;5007500;28;20037;-58
2022/06/16 12:17:30;;;;;;;1.10;1.05;;;24.00;47.60;;;;;;5005420;28;20112;-58
2022/06/16 12:20:17;;;;;;;1.10;1.00;;;24.00;47.60;;;;;;5018217;28;20080;-58
2022/06/16 12:22:49;;;;;;;1.52;0.95;;;24.00;47.10;;;;;;5003289;28;20033;-58
2022/06/16 12:25:56;;;;;;;1.48;1.10;;;24.00;47.20;;;;;;5008304;28;20489;-58
2022/06/16 12:28:58;;;;;;;0.90;0.90;;;23.90;47.10;;;;;;5011151;28;20556;-59
2022/06/16 12:31:29;;;;;;;0.98;0.98;;;23.90;47.10;;;;;;4991427;28;20077;-58
2022/06/16 12:34:16;;;;;;;1.42;1.30;;;23.90;46.90;;;;;;4998998;28;20088;-57
2022/06/16 12:36:52;;;;;;;1.40;1.30;;;23.90;46.80;;;;;;5006796;28;20034;-58
2022/06/16 12:39:29;;;;;;;1.10;1.10;;;24.00;46.80;;;;;;4999752;28;20161;-58
2022/06/16 12:42:01;;;;;;;1.42;1.33;;;23.90;46.70;;;;;;4994967;28;20478;-58
2022/06/16 12:44:59;;;;;;;1.20;1.20;;;23.90;46.60;;;;;;5008503;28;20029;-59
2022/06/16 12:47:46;;;;;;;1.25;1.15;;;24.00;46.40;;;;;;5014772;28;20056;-58
2022/06/16 12:50:37;;;;;;;1.48;1.38;;;24.00;45.90;;;;;;5005463;28;20138;-57
2022/06/16 12:53:09;;;;;;;1.13;1.13;;;24.00;45.80;;;;;;5010309;28;20128;-59
2022/06/16 12:56:16;;;;;;;0.95;0.95;;;24.00;46.00;;;;;;5007775;28;20030;-58
2022/06/16 12:58:50;;;;;;;0.85;0.85;;;24.00;45.60;;;;;;5012038;28;20726;-57
2022/06/16 13:01:17;;;;;;;1.30;1.30;;;24.00;45.50;;;;;;4990630;28;20132;-59
2022/06/16 13:03:52;;;;;;;1.67;1.42;;;24.00;46.20;;;;;;4998271;28;20492;-56
2022/06/16 13:06:21;;;;;;;1.60;1.50;;;24.00;45.50;;;;;;5009180;28;20195;-57
2022/06/16 13:08:51;;;;;;;1.42;1.30;;;24.00;45.20;;;;;;5000557;28;20045;-57
2022/06/16 13:11:20;;;;;;;1.50;1.40;;;24.00;45.30;;;;;;5006858;28;20481;-58
2022/06/16 13:13:56;;;;;;;1.30;1.20;;;24.00;45.20;;;;;;5009398;28;20061;-57
2022/06/16 13:16:31;;;;;;;0.90;0.90;;;24.00;45.10;;;;;;4998455;28;20062;-58
2022/06/16 13:19:04;;;;;;;1.55;1.05;;;24.00;45.40;;;;;;4988807;28;20172;-56
2022/06/16 13:21:36;;;;;;;1.15;1.10;;;24.00;45.70;;;;;;5004819;28;20026;-57
2022/06/16 13:24:21;;;;;;;1.15;1.08;;;24.00;45.90;;;;;;4999064;28;20381;-56
2022/06/16 13:27:13;;;;;;;1.23;1.15;;;24.00;46.20;;;;;;5002156;28;20129;-57
2022/06/16 13:30:04;;;;;;;1.30;1.20;;;24.00;46.20;;;;;;5001569;28;20033;-56